Rain From: 23-01-2018 23:00 Until: 24-01-2018 09:00 warning for: Rain Level: Yellow info button
A spell of rain, heavy at times, is expected and will be accompanied by strong winds. Flooding of a few homes and business is likely. Bus and train services will probably be affected and spray and flooding is expected on roads, this all making journey times longer. 

Nearby METAR Reports

 

EGNT - Newcastle, United Kingdom
Distance from station: NNE 1mi, 2km
Updated: 24/01/2018 05:20
Light rain, Mostly cloudy
Light rain, Mostly cloudy
 Wind from S
Wind: S 22 mph , 35 km/h, Gust: 33 mph , 54 km/h
Temperature: 10°C
Wind Chill: 6°C
Dew Point: 8°C
Humidity: 88%
Barometer: 988 hPa
Summary: Light rain
Clouds: Mostly cloudy
Visibility: 6 miles , 10 km
Cloud details: Few Clouds 549 m
Mostly cloudy 1006 m
2018/01/24 05:20 EGNT 240520Z 19019G29KT 9999 -RA FEW018 BKN033 10/08 Q0988
EGQM - Boulmer, United Kingdom
Distance from station: N 29mi, 47km
Updated: 24/01/2018 04:50
Light rain, Mostly cloudy
Light rain, Mostly cloudy
 Wind from S
Wind: S 26 mph , 43 km/h, Gust: 38 mph , 61 km/h
Temperature: 10°C
Wind Chill: 6°C
Dew Point: 8°C
Humidity: 88%
Barometer: 988 hPa
Summary: Light rain
Clouds: Mostly cloudy
Visibility: 6 miles , 10 km
Cloud details: Mostly cloudy 1524 m
2018/01/24 04:50 EGQM 240450Z AUTO 19023G33KT 9999 -RA BKN050/// 10/08 Q0988
 
EGOM - Spadeadam, United Kingdom
Distance from station: W 34mi, 54km
Updated: 24/01/2018 04:50
Light rain, Snow, Mostly cloudy
Light rain, Snow, Mostly cloudy
 Wind from SSW
Wind: SSW 32 mph , 52 km/h, Gust: 46 mph , 74 km/h
Temperature: 8°C
Wind Chill: 2°C
Dew Point: 8°C
Humidity: 100%
Barometer: 987 hPa
Summary: Light rain, Snow
Clouds: Mostly cloudy
Visibility: 1 mile , 1 km
Cloud details: Mostly cloudy 183 m
Mostly cloudy 427 m
2018/01/24 04:50 EGOM 240450Z AUTO 20028G40KT 1000 -RASN BKN006/// BKN014/// 08/08 Q0987
EGNV - Tees-Side, United Kingdom
Distance from station: SSE 35mi, 57km
Updated: 23/01/2018 21:50
NOT Current
Clear
Clear
 Wind from SSW
Wind: SSW 16 mph , 26 km/h
Temperature: 9°C
Wind Chill: 6°C
Dew Point: 5°C
Humidity: 76%
Barometer: 1004 hPa
Summary: Clear
Visibility: greater than 7 miles , 10 km
2018/01/23 21:50 EGNV 232150Z 20014KT CAVOK 09/05 Q1004
 
EGNC - Carlisle, United Kingdom
Distance from station: W 45mi, 72km
Updated: 23/01/2018 17:50
NOT Current
Nearby showers, Partly cloudy
Nearby showers, Partly cloudy
 Wind from WSW
Wind: WSW 29 mph , 46 km/h, Gust: 40 mph , 65 km/h
Temperature: 9°C
Wind Chill: 4°C
Dew Point: 7°C
Humidity: 87%
Barometer: 1001 hPa
Summary: Nearby Showers
Clouds: Partly cloudy
Visibility: 6 miles , 9 km
Cloud details: Partly cloudy 305 m
Partly cloudy 549 m
2018/01/23 17:50 EGNC 231750Z 25025G35KT 9000 VCSH SCT010 SCT018 09/07 Q1001
EGXE - Leeming Raf, United Kingdom
Distance from station: S 50mi, 81km
Updated: 24/01/2018 04:50
Partly cloudy
Partly cloudy
 Wind from S
Wind: S 29 mph , 46 km/h
Temperature: 11°C
Dew Point: 7°C
Humidity: 77%
Barometer: 993 hPa
Clouds: Partly cloudy
Visibility: 6 miles , 10 km
Cloud details: Few Clouds 732 m
Partly cloudy 3353 m
2018/01/24 04:50 EGXE 240450Z AUTO 19025KT 9999 FEW024/// SCT110/// 11/07 Q0993
 
EGXZ - Topcliffe Raf, United Kingdom
Distance from station: SSE 57mi, 91km
Updated: 24/01/2018 04:50
Mostly cloudy
Mostly cloudy
 Wind from S
Wind: S 32 mph , 52 km/h
Temperature: 12°C
Dew Point: 7°C
Humidity: 72%
Barometer: 995 hPa
Clouds: Mostly cloudy
Visibility: 6 miles , 10 km
Cloud details: Mostly cloudy 762 m
2018/01/24 04:50 EGXZ 240450Z AUTO 19028KT 9999 BKN025/// 12/07 Q0995
EGXU - Linton-On-Ouse R, United Kingdom
Distance from station: SSE 68mi, 110km
Updated: 24/01/2018 04:50
Partly cloudy
Partly cloudy
 Wind from S
Wind: S 23 mph , 37 km/h
Temperature: 11°C
Dew Point: 7°C
Humidity: 77%
Barometer: 995 hPa
Clouds: Partly cloudy
Visibility: 6 miles , 10 km
Cloud details: Mostly cloudy 823 m
Partly cloudy 1128 m
2018/01/24 04:50 EGXU 240450Z AUTO 18020KT 9999 // BKN027/// SCT037/// 11/07 Q0995
 
EGNM - Leeds And Bradfo, United Kingdom
Distance from station: S 78mi, 126km
Updated: 24/01/2018 05:20
Mostly cloudy
Mostly cloudy
 Wind from SSW
Wind: SSW 26 mph , 43 km/h, Gust: 40 mph , 65 km/h
Temperature: 11°C
Dew Point: 7°C
Humidity: 77%
Barometer: 993 hPa
Clouds: Mostly cloudy
Visibility: 6 miles , 10 km
Cloud details: Mostly cloudy 518 m
2018/01/24 05:20 EGNM 240520Z 21023G35KT 170V250 9999 BKN017 11/07 Q0993
EGPH - Edinburgh Airpor, United Kingdom
Distance from station: NW 92mi, 148km
Updated: 24/01/2018 05:20
Light rain, Overcast
Light rain, Overcast
 Wind from SW
Wind: SW 23 mph , 37 km/h
Temperature: 10°C
Wind Chill: 6°C
Dew Point: 8°C
Humidity: 88%
Barometer: 984 hPa
Summary: Light rain
Clouds: Overcast
Visibility: 4 miles , 7 km
Cloud details: Partly cloudy 366 m
Mostly cloudy 762 m
Overcast 1341 m
2018/01/24 05:20 EGPH 240520Z 23020KT 7000 -RA SCT012CB BKN025 OVC044 10/08 Q0984 RERA
 
EGXV - Leconfield (aut), United Kingdom
Distance from station: SE 93mi, 150km
Updated: 24/01/2018 04:50
Mostly cloudy
Mostly cloudy
 Wind from S
Wind: S 16 mph , 26 km/h, Gust: 29 mph , 46 km/h
Temperature: 10°C
Wind Chill: 7°C
Dew Point: 7°C
Humidity: 82%
Barometer: 998 hPa
Clouds: Mostly cloudy
Visibility: 6 miles , 10 km
Cloud details: Mostly cloudy 579 m
2018/01/24 04:50 EGXV 240450Z AUTO 19014G25KT 9999 BKN019/// 10/07 Q0998
EGNO - Wharton, United Kingdom
Distance from station: SSW 99mi, 159km
Updated: 23/01/2018 19:20
NOT Current
Clear
Clear
 Wind from WSW
Wind: WSW 17 mph , 28 km/h
Temperature: 8°C
Wind Chill: 4°C
Dew Point: 6°C
Humidity: 87%
Barometer: 1006 hPa
Summary: Clear
Visibility: greater than 7 miles , 10 km
2018/01/23 19:20 EGNO 231920Z 25015KT CAVOK 08/06 Q1006
 
EGNH - Blackpool Airpor, United Kingdom
Distance from station: SSW 100mi, 161km
Updated: 23/01/2018 20:50
NOT Current
Clear
Clear
 Wind from SSW
Wind: SSW 17 mph , 28 km/h
Temperature: 8°C
Wind Chill: 4°C
Dew Point: 6°C
Humidity: 87%
Barometer: 1006 hPa
Summary: Clear
Visibility: greater than 7 miles , 10 km
2018/01/23 20:50 EGNH 232050Z 21015KT CAVOK 08/06 Q1006